sensor_id;sensor_type;location;lat;lon;timestamp;P1;durP1;ratioP1;P2;durP2;ratioP2
75823;SDS011;64457;51.976;9.834;2023-02-11T00:01:59;54.00;;;23.20;;
75823;SDS011;64457;51.976;9.834;2023-02-11T00:04:29;49.67;;;23.50;;
75823;SDS011;64457;51.976;9.834;2023-02-11T00:06:56;47.87;;;23.43;;
75823;SDS011;64457;51.976;9.834;2023-02-11T00:09:24;55.53;;;24.60;;
75823;SDS011;64457;51.976;9.834;2023-02-11T00:11:52;56.97;;;23.63;;
75823;SDS011;64457;51.976;9.834;2023-02-11T00:14:20;52.23;;;24.80;;
75823;SDS011;64457;51.976;9.834;2023-02-11T00:16:48;51.63;;;23.30;;
75823;SDS011;64457;51.976;9.834;2023-02-11T00:19:15;61.00;;;23.83;;
75823;SDS011;64457;51.976;9.834;2023-02-11T00:21:43;51.37;;;24.20;;
75823;SDS011;64457;51.976;9.834;2023-02-11T00:24:10;52.10;;;25.17;;
75823;SDS011;64457;51.976;9.834;2023-02-11T00:26:38;52.30;;;25.57;;
75823;SDS011;64457;51.976;9.834;2023-02-11T00:29:05;61.83;;;25.30;;
75823;SDS011;64457;51.976;9.834;2023-02-11T00:31:34;52.20;;;23.00;;
75823;SDS011;64457;51.976;9.834;2023-02-11T00:34:02;44.43;;;23.07;;
75823;SDS011;64457;51.976;9.834;2023-02-11T00:36:30;52.33;;;24.50;;
75823;SDS011;64457;51.976;9.834;2023-02-11T00:38:58;43.23;;;22.60;;
75823;SDS011;64457;51.976;9.834;2023-02-11T00:41:26;53.07;;;23.90;;
75823;SDS011;64457;51.976;9.834;2023-02-11T00:43:53;57.07;;;24.30;;
75823;SDS011;64457;51.976;9.834;2023-02-11T00:46:21;54.07;;;25.43;;
75823;SDS011;64457;51.976;9.834;2023-02-11T00:48:50;62.90;;;26.27;;
75823;SDS011;64457;51.976;9.834;2023-02-11T00:51:21;51.27;;;24.10;;
75823;SDS011;64457;51.976;9.834;2023-02-11T00:53:49;54.23;;;23.67;;
75823;SDS011;64457;51.976;9.834;2023-02-11T00:56:17;60.10;;;25.73;;
75823;SDS011;64457;51.976;9.834;2023-02-11T00:58:44;54.40;;;25.13;;
75823;SDS011;64457;51.976;9.834;2023-02-11T01:01:12;53.97;;;24.80;;
75823;SDS011;64457;51.976;9.834;2023-02-11T01:03:40;56.00;;;24.97;;
75823;SDS011;64457;51.976;9.834;2023-02-11T01:06:08;57.23;;;23.83;;
75823;SDS011;64457;51.976;9.834;2023-02-11T01:08:36;58.93;;;25.80;;
75823;SDS011;64457;51.976;9.834;2023-02-11T01:11:05;53.10;;;23.87;;
75823;SDS011;64457;51.976;9.834;2023-02-11T01:13:38;57.73;;;24.90;;
75823;SDS011;64457;51.976;9.834;2023-02-11T01:16:06;54.60;;;24.87;;
75823;SDS011;64457;51.976;9.834;2023-02-11T01:18:35;52.50;;;26.47;;
75823;SDS011;64457;51.976;9.834;2023-02-11T01:21:03;56.37;;;24.60;;
75823;SDS011;64457;51.976;9.834;2023-02-11T01:23:33;52.67;;;24.67;;
75823;SDS011;64457;51.976;9.834;2023-02-11T01:26:00;54.90;;;25.23;;
75823;SDS011;64457;51.976;9.834;2023-02-11T01:28:28;56.47;;;24.97;;
75823;SDS011;64457;51.976;9.834;2023-02-11T01:30:56;51.53;;;24.60;;
75823;SDS011;64457;51.976;9.834;2023-02-11T01:33:25;51.73;;;24.23;;
75823;SDS011;64457;51.976;9.834;2023-02-11T01:35:53;55.30;;;25.30;;
75823;SDS011;64457;51.976;9.834;2023-02-11T01:38:21;60.00;;;25.97;;
75823;SDS011;64457;51.976;9.834;2023-02-11T01:40:52;61.30;;;27.40;;
75823;SDS011;64457;51.976;9.834;2023-02-11T01:43:22;57.07;;;26.07;;
75823;SDS011;64457;51.976;9.834;2023-02-11T01:48:56;65.77;;;26.60;;
75823;SDS011;64457;51.976;9.834;2023-02-11T01:51:29;59.00;;;27.30;;
75823;SDS011;64457;51.976;9.834;2023-02-11T01:54:02;53.83;;;26.57;;
75823;SDS011;64457;51.976;9.834;2023-02-11T01:56:50;61.67;;;28.30;;
75823;SDS011;64457;51.976;9.834;2023-02-11T01:59:40;57.90;;;26.60;;
75823;SDS011;64457;51.976;9.834;2023-02-11T02:02:12;71.50;;;29.03;;
75823;SDS011;64457;51.976;9.834;2023-02-11T02:04:48;66.27;;;29.53;;
75823;SDS011;64457;51.976;9.834;2023-02-11T02:07:24;60.37;;;26.70;;
75823;SDS011;64457;51.976;9.834;2023-02-11T02:09:59;71.87;;;28.80;;
75823;SDS011;64457;51.976;9.834;2023-02-11T02:12:35;59.70;;;28.60;;
75823;SDS011;64457;51.976;9.834;2023-02-11T02:18:08;61.03;;;27.63;;
75823;SDS011;64457;51.976;9.834;2023-02-11T02:21:00;61.93;;;27.57;;
75823;SDS011;64457;51.976;9.834;2023-02-11T02:24:16;61.03;;;26.00;;
75823;SDS011;64457;51.976;9.834;2023-02-11T02:27:34;55.00;;;25.40;;
75823;SDS011;64457;51.976;9.834;2023-02-11T02:33:30;53.00;;;25.30;;
75823;SDS011;64457;51.976;9.834;2023-02-11T02:36:06;50.40;;;24.43;;
75823;SDS011;64457;51.976;9.834;2023-02-11T02:38:43;50.20;;;24.43;;
75823;SDS011;64457;51.976;9.834;2023-02-11T02:41:19;47.33;;;22.60;;
75823;SDS011;64457;51.976;9.834;2023-02-11T02:43:50;45.83;;;22.37;;
75823;SDS011;64457;51.976;9.834;2023-02-11T02:46:20;46.00;;;22.80;;
75823;SDS011;64457;51.976;9.834;2023-02-11T02:48:52;44.63;;;22.93;;
75823;SDS011;64457;51.976;9.834;2023-02-11T02:51:25;43.50;;;21.47;;
75823;SDS011;64457;51.976;9.834;2023-02-11T02:54:28;42.00;;;21.20;;
75823;SDS011;64457;51.976;9.834;2023-02-11T02:57:29;45.47;;;20.70;;
75823;SDS011;64457;51.976;9.834;2023-02-11T03:00:12;46.10;;;22.30;;
75823;SDS011;64457;51.976;9.834;2023-02-11T03:02:51;40.00;;;20.73;;
75823;SDS011;64457;51.976;9.834;2023-02-11T03:05:50;45.20;;;20.67;;
75823;SDS011;64457;51.976;9.834;2023-02-11T03:08:24;39.50;;;21.37;;
75823;SDS011;64457;51.976;9.834;2023-02-11T03:10:56;45.73;;;21.50;;
75823;SDS011;64457;51.976;9.834;2023-02-11T03:13:27;45.13;;;22.87;;
75823;SDS011;64457;51.976;9.834;2023-02-11T03:16:00;41.67;;;19.87;;
75823;SDS011;64457;51.976;9.834;2023-02-11T03:18:35;40.00;;;21.40;;
75823;SDS011;64457;51.976;9.834;2023-02-11T03:21:07;45.73;;;21.60;;
75823;SDS011;64457;51.976;9.834;2023-02-11T03:23:38;46.53;;;22.43;;
75823;SDS011;64457;51.976;9.834;2023-02-11T03:26:09;49.13;;;22.20;;
75823;SDS011;64457;51.976;9.834;2023-02-11T03:28:46;45.40;;;22.77;;
75823;SDS011;64457;51.976;9.834;2023-02-11T03:31:24;45.50;;;22.57;;
75823;SDS011;64457;51.976;9.834;2023-02-11T03:33:56;44.93;;;22.30;;
75823;SDS011;64457;51.976;9.834;2023-02-11T03:36:31;43.60;;;22.53;;
75823;SDS011;64457;51.976;9.834;2023-02-11T03:39:05;48.07;;;23.90;;
75823;SDS011;64457;51.976;9.834;2023-02-11T03:41:35;46.03;;;22.90;;
75823;SDS011;64457;51.976;9.834;2023-02-11T03:44:03;44.73;;;22.97;;
75823;SDS011;64457;51.976;9.834;2023-02-11T03:46:36;50.83;;;24.07;;
75823;SDS011;64457;51.976;9.834;2023-02-11T03:49:07;49.27;;;24.43;;
75823;SDS011;64457;51.976;9.834;2023-02-11T03:51:38;48.03;;;23.60;;
75823;SDS011;64457;51.976;9.834;2023-02-11T03:54:08;53.50;;;24.37;;
75823;SDS011;64457;51.976;9.834;2023-02-11T03:56:40;49.63;;;24.33;;
75823;SDS011;64457;51.976;9.834;2023-02-11T03:59:15;50.07;;;23.73;;
75823;SDS011;64457;51.976;9.834;2023-02-11T04:01:43;54.30;;;24.90;;
75823;SDS011;64457;51.976;9.834;2023-02-11T04:04:10;52.50;;;25.67;;
75823;SDS011;64457;51.976;9.834;2023-02-11T04:06:39;53.83;;;25.90;;
75823;SDS011;64457;51.976;9.834;2023-02-11T04:09:07;50.30;;;24.57;;
75823;SDS011;64457;51.976;9.834;2023-02-11T04:11:35;49.53;;;23.87;;
75823;SDS011;64457;51.976;9.834;2023-02-11T04:14:03;51.03;;;22.50;;
75823;SDS011;64457;51.976;9.834;2023-02-11T04:16:30;49.70;;;23.30;;
75823;SDS011;64457;51.976;9.834;2023-02-11T04:18:58;55.03;;;24.87;;
75823;SDS011;64457;51.976;9.834;2023-02-11T04:21:25;45.80;;;23.70;;
75823;SDS011;64457;51.976;9.834;2023-02-11T04:23:54;40.97;;;21.70;;
75823;SDS011;64457;51.976;9.834;2023-02-11T04:26:22;40.90;;;20.93;;
75823;SDS011;64457;51.976;9.834;2023-02-11T04:28:50;44.63;;;22.80;;
75823;SDS011;64457;51.976;9.834;2023-02-11T04:31:17;44.37;;;22.40;;
75823;SDS011;64457;51.976;9.834;2023-02-11T04:33:45;45.80;;;22.73;;
75823;SDS011;64457;51.976;9.834;2023-02-11T04:36:12;44.93;;;19.90;;
75823;SDS011;64457;51.976;9.834;2023-02-11T04:38:39;40.90;;;21.73;;
75823;SDS011;64457;51.976;9.834;2023-02-11T04:41:08;43.33;;;21.50;;
75823;SDS011;64457;51.976;9.834;2023-02-11T04:43:36;40.87;;;20.83;;
75823;SDS011;64457;51.976;9.834;2023-02-11T04:46:03;39.23;;;19.63;;
75823;SDS011;64457;51.976;9.834;2023-02-11T04:48:31;37.60;;;19.37;;
75823;SDS011;64457;51.976;9.834;2023-02-11T04:51:00;38.30;;;19.00;;
75823;SDS011;64457;51.976;9.834;2023-02-11T04:53:28;32.60;;;16.87;;
75823;SDS011;64457;51.976;9.834;2023-02-11T04:55:56;35.20;;;18.43;;
75823;SDS011;64457;51.976;9.834;2023-02-11T04:58:26;36.60;;;19.00;;
75823;SDS011;64457;51.976;9.834;2023-02-11T05:00:53;40.27;;;20.13;;
75823;SDS011;64457;51.976;9.834;2023-02-11T05:03:22;39.50;;;19.17;;
75823;SDS011;64457;51.976;9.834;2023-02-11T05:06:01;35.07;;;19.10;;
75823;SDS011;64457;51.976;9.834;2023-02-11T05:08:29;35.60;;;18.07;;
75823;SDS011;64457;51.976;9.834;2023-02-11T05:10:57;37.37;;;18.67;;
75823;SDS011;64457;51.976;9.834;2023-02-11T05:13:27;36.13;;;18.40;;
75823;SDS011;64457;51.976;9.834;2023-02-11T05:15:55;34.43;;;16.23;;
75823;SDS011;64457;51.976;9.834;2023-02-11T05:18:23;36.00;;;18.50;;
75823;SDS011;64457;51.976;9.834;2023-02-11T05:20:51;33.10;;;16.70;;
75823;SDS011;64457;51.976;9.834;2023-02-11T05:23:18;33.97;;;18.20;;
75823;SDS011;64457;51.976;9.834;2023-02-11T05:25:46;36.07;;;18.90;;
75823;SDS011;64457;51.976;9.834;2023-02-11T05:28:13;33.43;;;15.40;;
75823;SDS011;64457;51.976;9.834;2023-02-11T05:30:42;34.17;;;17.37;;
75823;SDS011;64457;51.976;9.834;2023-02-11T05:33:10;37.33;;;17.50;;
75823;SDS011;64457;51.976;9.834;2023-02-11T05:35:37;34.77;;;17.80;;
75823;SDS011;64457;51.976;9.834;2023-02-11T05:38:05;36.30;;;18.63;;
75823;SDS011;64457;51.976;9.834;2023-02-11T05:40:32;40.27;;;18.67;;
75823;SDS011;64457;51.976;9.834;2023-02-11T05:43:00;38.17;;;19.10;;
75823;SDS011;64457;51.976;9.834;2023-02-11T05:45:27;41.83;;;18.53;;
75823;SDS011;64457;51.976;9.834;2023-02-11T05:47:57;37.07;;;19.17;;
75823;SDS011;64457;51.976;9.834;2023-02-11T05:50:25;40.30;;;20.67;;
75823;SDS011;64457;51.976;9.834;2023-02-11T05:52:53;40.90;;;20.80;;
75823;SDS011;64457;51.976;9.834;2023-02-11T05:55:20;43.17;;;20.43;;
75823;SDS011;64457;51.976;9.834;2023-02-11T05:57:48;40.40;;;21.27;;
75823;SDS011;64457;51.976;9.834;2023-02-11T06:00:16;45.50;;;20.93;;
75823;SDS011;64457;51.976;9.834;2023-02-11T06:02:44;43.40;;;20.73;;
75823;SDS011;64457;51.976;9.834;2023-02-11T06:05:13;44.03;;;22.23;;
75823;SDS011;64457;51.976;9.834;2023-02-11T06:07:40;44.40;;;23.07;;
75823;SDS011;64457;51.976;9.834;2023-02-11T06:10:08;42.80;;;21.90;;
75823;SDS011;64457;51.976;9.834;2023-02-11T06:12:36;46.07;;;22.93;;
75823;SDS011;64457;51.976;9.834;2023-02-11T06:15:04;58.63;;;23.07;;
75823;SDS011;64457;51.976;9.834;2023-02-11T06:17:33;49.53;;;23.30;;
75823;SDS011;64457;51.976;9.834;2023-02-11T06:20:02;49.73;;;24.37;;
75823;SDS011;64457;51.976;9.834;2023-02-11T06:22:33;46.00;;;22.87;;
75823;SDS011;64457;51.976;9.834;2023-02-11T06:25:00;54.60;;;25.47;;
75823;SDS011;64457;51.976;9.834;2023-02-11T06:27:28;50.83;;;24.97;;
75823;SDS011;64457;51.976;9.834;2023-02-11T06:29:55;52.03;;;25.17;;
75823;SDS011;64457;51.976;9.834;2023-02-11T06:32:23;44.10;;;20.27;;
75823;SDS011;64457;51.976;9.834;2023-02-11T06:34:50;54.73;;;25.13;;
75823;SDS011;64457;51.976;9.834;2023-02-11T06:37:17;55.27;;;26.13;;
75823;SDS011;64457;51.976;9.834;2023-02-11T06:39:47;59.03;;;26.73;;
75823;SDS011;64457;51.976;9.834;2023-02-11T06:42:14;63.80;;;26.17;;
75823;SDS011;64457;51.976;9.834;2023-02-11T06:44:42;56.30;;;27.03;;
75823;SDS011;64457;51.976;9.834;2023-02-11T06:47:10;65.73;;;28.67;;
75823;SDS011;64457;51.976;9.834;2023-02-11T06:49:37;53.10;;;22.50;;
75823;SDS011;64457;51.976;9.834;2023-02-11T06:52:04;61.47;;;28.70;;
75823;SDS011;64457;51.976;9.834;2023-02-11T06:54:32;62.23;;;29.30;;
75823;SDS011;64457;51.976;9.834;2023-02-11T06:57:01;58.60;;;28.27;;
75823;SDS011;64457;51.976;9.834;2023-02-11T06:59:28;60.67;;;29.43;;
75823;SDS011;64457;51.976;9.834;2023-02-11T07:01:56;58.83;;;27.60;;
75823;SDS011;64457;51.976;9.834;2023-02-11T07:04:23;56.47;;;28.97;;
75823;SDS011;64457;51.976;9.834;2023-02-11T07:06:51;66.63;;;30.03;;
75823;SDS011;64457;51.976;9.834;2023-02-11T07:09:18;61.07;;;28.30;;
75823;SDS011;64457;51.976;9.834;2023-02-11T07:11:46;62.80;;;29.00;;
75823;SDS011;64457;51.976;9.834;2023-02-11T07:14:15;66.00;;;29.80;;
75823;SDS011;64457;51.976;9.834;2023-02-11T07:16:42;66.97;;;31.83;;
75823;SDS011;64457;51.976;9.834;2023-02-11T07:19:09;63.23;;;29.00;;
75823;SDS011;64457;51.976;9.834;2023-02-11T07:21:37;63.60;;;30.27;;
75823;SDS011;64457;51.976;9.834;2023-02-11T07:24:05;63.20;;;27.83;;
75823;SDS011;64457;51.976;9.834;2023-02-11T07:26:33;60.63;;;29.10;;
75823;SDS011;64457;51.976;9.834;2023-02-11T07:29:01;60.30;;;28.10;;
75823;SDS011;64457;51.976;9.834;2023-02-11T07:31:30;69.77;;;30.27;;
75823;SDS011;64457;51.976;9.834;2023-02-11T07:33:59;69.33;;;29.33;;
75823;SDS011;64457;51.976;9.834;2023-02-11T07:36:28;60.10;;;28.03;;
75823;SDS011;64457;51.976;9.834;2023-02-11T07:38:57;63.93;;;29.50;;
75823;SDS011;64457;51.976;9.834;2023-02-11T07:41:25;63.07;;;29.87;;
75823;SDS011;64457;51.976;9.834;2023-02-11T07:43:53;65.30;;;28.40;;
75823;SDS011;64457;51.976;9.834;2023-02-11T07:46:21;60.20;;;30.63;;
75823;SDS011;64457;51.976;9.834;2023-02-11T07:48:51;66.50;;;30.13;;
75823;SDS011;64457;51.976;9.834;2023-02-11T07:51:20;68.80;;;28.90;;
75823;SDS011;64457;51.976;9.834;2023-02-11T07:53:49;63.43;;;27.37;;
75823;SDS011;64457;51.976;9.834;2023-02-11T07:56:18;65.20;;;28.27;;
75823;SDS011;64457;51.976;9.834;2023-02-11T07:58:46;60.73;;;28.37;;
75823;SDS011;64457;51.976;9.834;2023-02-11T08:01:15;61.87;;;27.83;;
75823;SDS011;64457;51.976;9.834;2023-02-11T08:03:46;64.03;;;30.23;;
75823;SDS011;64457;51.976;9.834;2023-02-11T08:06:16;63.37;;;28.50;;
75823;SDS011;64457;51.976;9.834;2023-02-11T08:08:45;63.50;;;26.43;;
75823;SDS011;64457;51.976;9.834;2023-02-11T08:11:15;66.87;;;30.50;;
75823;SDS011;64457;51.976;9.834;2023-02-11T08:13:44;55.80;;;22.70;;
75823;SDS011;64457;51.976;9.834;2023-02-11T08:16:16;64.63;;;29.87;;
75823;SDS011;64457;51.976;9.834;2023-02-11T08:18:46;56.77;;;28.37;;
75823;SDS011;64457;51.976;9.834;2023-02-11T08:21:15;70.63;;;31.00;;
75823;SDS011;64457;51.976;9.834;2023-02-11T08:23:44;62.50;;;28.03;;
75823;SDS011;64457;51.976;9.834;2023-02-11T08:26:13;67.80;;;29.17;;
75823;SDS011;64457;51.976;9.834;2023-02-11T08:28:42;54.10;;;26.60;;
75823;SDS011;64457;51.976;9.834;2023-02-11T08:31:12;61.17;;;28.60;;
75823;SDS011;64457;51.976;9.834;2023-02-11T08:33:42;57.90;;;26.03;;
75823;SDS011;64457;51.976;9.834;2023-02-11T08:36:10;54.87;;;27.17;;
75823;SDS011;64457;51.976;9.834;2023-02-11T08:38:42;63.40;;;29.57;;
75823;SDS011;64457;51.976;9.834;2023-02-11T08:41:10;56.90;;;28.27;;
75823;SDS011;64457;51.976;9.834;2023-02-11T08:43:39;64.80;;;27.57;;
75823;SDS011;64457;51.976;9.834;2023-02-11T08:46:10;61.70;;;28.07;;
75823;SDS011;64457;51.976;9.834;2023-02-11T08:48:40;64.63;;;27.50;;
75823;SDS011;64457;51.976;9.834;2023-02-11T08:51:08;66.33;;;27.83;;
75823;SDS011;64457;51.976;9.834;2023-02-11T08:53:39;56.87;;;24.70;;
75823;SDS011;64457;51.976;9.834;2023-02-11T08:56:08;57.57;;;27.00;;
75823;SDS011;64457;51.976;9.834;2023-02-11T08:58:37;67.30;;;27.47;;
75823;SDS011;64457;51.976;9.834;2023-02-11T09:01:07;56.03;;;27.00;;
75823;SDS011;64457;51.976;9.834;2023-02-11T09:03:35;60.33;;;26.27;;
75823;SDS011;64457;51.976;9.834;2023-02-11T09:06:03;64.23;;;29.00;;
75823;SDS011;64457;51.976;9.834;2023-02-11T09:08:33;62.07;;;27.87;;
75823;SDS011;64457;51.976;9.834;2023-02-11T09:11:01;60.47;;;26.43;;
75823;SDS011;64457;51.976;9.834;2023-02-11T09:13:32;57.63;;;26.80;;
75823;SDS011;64457;51.976;9.834;2023-02-11T09:16:00;51.67;;;24.70;;
75823;SDS011;64457;51.976;9.834;2023-02-11T09:18:30;69.40;;;27.97;;
75823;SDS011;64457;51.976;9.834;2023-02-11T09:21:01;64.50;;;28.47;;
75823;SDS011;64457;51.976;9.834;2023-02-11T09:23:29;53.50;;;25.73;;
75823;SDS011;64457;51.976;9.834;2023-02-11T09:25:58;60.90;;;27.10;;
75823;SDS011;64457;51.976;9.834;2023-02-11T09:28:26;57.93;;;26.17;;
75823;SDS011;64457;51.976;9.834;2023-02-11T09:30:55;56.43;;;25.83;;
75823;SDS011;64457;51.976;9.834;2023-02-11T09:33:22;52.10;;;24.83;;
75823;SDS011;64457;51.976;9.834;2023-02-11T09:35:50;56.97;;;25.73;;
75823;SDS011;64457;51.976;9.834;2023-02-11T09:38:17;54.93;;;25.20;;
75823;SDS011;64457;51.976;9.834;2023-02-11T09:40:45;56.13;;;25.60;;
75823;SDS011;64457;51.976;9.834;2023-02-11T09:43:13;52.40;;;24.20;;
75823;SDS011;64457;51.976;9.834;2023-02-11T09:45:46;59.87;;;25.50;;
75823;SDS011;64457;51.976;9.834;2023-02-11T09:48:18;58.20;;;26.00;;
75823;SDS011;64457;51.976;9.834;2023-02-11T09:50:48;58.73;;;26.20;;
75823;SDS011;64457;51.976;9.834;2023-02-11T09:53:19;54.43;;;25.40;;
75823;SDS011;64457;51.976;9.834;2023-02-11T09:55:52;52.30;;;25.57;;
75823;SDS011;64457;51.976;9.834;2023-02-11T09:58:23;53.10;;;24.83;;
75823;SDS011;64457;51.976;9.834;2023-02-11T10:00:56;58.40;;;25.70;;
75823;SDS011;64457;51.976;9.834;2023-02-11T10:06:34;56.50;;;24.27;;
75823;SDS011;64457;51.976;9.834;2023-02-11T10:09:11;51.83;;;24.40;;
75823;SDS011;64457;51.976;9.834;2023-02-11T10:12:09;54.03;;;24.20;;
75823;SDS011;64457;51.976;9.834;2023-02-11T10:15:05;54.83;;;24.67;;
75823;SDS011;64457;51.976;9.834;2023-02-11T10:17:46;53.80;;;25.17;;
75823;SDS011;64457;51.976;9.834;2023-02-11T10:20:31;52.00;;;24.13;;
75823;SDS011;64457;51.976;9.834;2023-02-11T10:23:07;60.33;;;26.00;;
75823;SDS011;64457;51.976;9.834;2023-02-11T10:25:40;61.20;;;26.03;;
75823;SDS011;64457;51.976;9.834;2023-02-11T10:28:11;57.53;;;27.00;;
75823;SDS011;64457;51.976;9.834;2023-02-11T10:30:42;58.83;;;24.83;;
75823;SDS011;64457;51.976;9.834;2023-02-11T10:33:19;59.93;;;24.63;;
75823;SDS011;64457;51.976;9.834;2023-02-11T10:35:54;59.63;;;25.10;;
75823;SDS011;64457;51.976;9.834;2023-02-11T10:38:21;53.83;;;25.37;;
75823;SDS011;64457;51.976;9.834;2023-02-11T10:40:49;56.80;;;26.67;;
75823;SDS011;64457;51.976;9.834;2023-02-11T10:43:18;57.53;;;26.07;;
75823;SDS011;64457;51.976;9.834;2023-02-11T10:45:51;57.33;;;25.70;;
75823;SDS011;64457;51.976;9.834;2023-02-11T10:48:37;57.70;;;26.70;;
75823;SDS011;64457;51.976;9.834;2023-02-11T10:51:14;58.20;;;27.40;;
75823;SDS011;64457;51.976;9.834;2023-02-11T10:53:45;51.43;;;24.97;;
75823;SDS011;64457;51.976;9.834;2023-02-11T10:56:19;67.17;;;28.07;;
75823;SDS011;64457;51.976;9.834;2023-02-11T10:58:55;60.90;;;24.60;;
75823;SDS011;64457;51.976;9.834;2023-02-11T11:01:41;54.53;;;24.10;;
75823;SDS011;64457;51.976;9.834;2023-02-11T11:07:11;63.03;;;27.10;;
75823;SDS011;64457;51.976;9.834;2023-02-11T11:09:44;59.00;;;25.60;;
75823;SDS011;64457;51.976;9.834;2023-02-11T11:12:25;47.07;;;20.30;;
75823;SDS011;64457;51.976;9.834;2023-02-11T11:15:00;59.23;;;24.90;;
75823;SDS011;64457;51.976;9.834;2023-02-11T11:17:40;53.90;;;23.83;;
75823;SDS011;64457;51.976;9.834;2023-02-11T11:20:19;53.57;;;23.37;;
75823;SDS011;64457;51.976;9.834;2023-02-11T11:23:05;50.70;;;23.40;;
75823;SDS011;64457;51.976;9.834;2023-02-11T11:25:40;58.33;;;23.97;;
75823;SDS011;64457;51.976;9.834;2023-02-11T11:28:19;49.47;;;23.33;;
75823;SDS011;64457;51.976;9.834;2023-02-11T11:30:51;52.50;;;23.80;;
75823;SDS011;64457;51.976;9.834;2023-02-11T11:33:21;48.03;;;23.47;;
75823;SDS011;64457;51.976;9.834;2023-02-11T11:35:54;49.00;;;21.83;;
75823;SDS011;64457;51.976;9.834;2023-02-11T11:38:28;44.07;;;21.33;;
75823;SDS011;64457;51.976;9.834;2023-02-11T11:41:16;48.03;;;20.87;;
75823;SDS011;64457;51.976;9.834;2023-02-11T11:43:53;41.50;;;19.80;;
75823;SDS011;64457;51.976;9.834;2023-02-11T11:46:31;49.87;;;22.20;;
75823;SDS011;64457;51.976;9.834;2023-02-11T11:49:08;44.80;;;19.90;;
75823;SDS011;64457;51.976;9.834;2023-02-11T11:51:50;43.47;;;18.77;;
75823;SDS011;64457;51.976;9.834;2023-02-11T11:54:25;45.67;;;19.77;;
75823;SDS011;64457;51.976;9.834;2023-02-11T11:56:55;42.87;;;19.60;;
75823;SDS011;64457;51.976;9.834;2023-02-11T11:59:28;40.33;;;18.00;;
75823;SDS011;64457;51.976;9.834;2023-02-11T12:02:03;40.20;;;19.70;;
75823;SDS011;64457;51.976;9.834;2023-02-11T12:04:54;42.80;;;19.27;;
75823;SDS011;64457;51.976;9.834;2023-02-11T12:07:32;39.27;;;18.20;;
75823;SDS011;64457;51.976;9.834;2023-02-11T12:10:32;43.40;;;18.53;;
75823;SDS011;64457;51.976;9.834;2023-02-11T12:13:15;40.43;;;17.03;;
75823;SDS011;64457;51.976;9.834;2023-02-11T12:16:03;41.63;;;16.97;;
75823;SDS011;64457;51.976;9.834;2023-02-11T12:19:01;37.30;;;17.60;;
75823;SDS011;64457;51.976;9.834;2023-02-11T12:22:02;38.07;;;17.33;;
75823;SDS011;64457;51.976;9.834;2023-02-11T12:24:41;35.77;;;17.30;;
75823;SDS011;64457;51.976;9.834;2023-02-11T12:27:26;38.53;;;18.00;;
75823;SDS011;64457;51.976;9.834;2023-02-11T12:30:13;33.93;;;16.60;;
75823;SDS011;64457;51.976;9.834;2023-02-11T12:32:56;43.10;;;19.43;;
75823;SDS011;64457;51.976;9.834;2023-02-11T12:35:37;36.37;;;17.40;;
75823;SDS011;64457;51.976;9.834;2023-02-11T12:41:30;37.27;;;17.13;;
75823;SDS011;64457;51.976;9.834;2023-02-11T12:44:32;36.03;;;17.03;;
75823;SDS011;64457;51.976;9.834;2023-02-11T12:47:13;41.30;;;17.30;;
75823;SDS011;64457;51.976;9.834;2023-02-11T12:50:03;36.23;;;17.17;;
75823;SDS011;64457;51.976;9.834;2023-02-11T12:52:44;36.53;;;18.30;;
75823;SDS011;64457;51.976;9.834;2023-02-11T12:55:26;43.90;;;18.17;;
75823;SDS011;64457;51.976;9.834;2023-02-11T12:57:56;32.90;;;16.07;;
75823;SDS011;64457;51.976;9.834;2023-02-11T13:00:28;32.83;;;16.00;;
75823;SDS011;64457;51.976;9.834;2023-02-11T13:03:05;39.90;;;16.70;;
75823;SDS011;64457;51.976;9.834;2023-02-11T13:05:39;33.87;;;17.10;;
75823;SDS011;64457;51.976;9.834;2023-02-11T13:08:14;35.20;;;17.53;;
75823;SDS011;64457;51.976;9.834;2023-02-11T13:10:47;33.93;;;16.13;;
75823;SDS011;64457;51.976;9.834;2023-02-11T13:13:20;37.87;;;17.03;;
75823;SDS011;64457;51.976;9.834;2023-02-11T13:15:53;33.70;;;16.87;;
75823;SDS011;64457;51.976;9.834;2023-02-11T13:18:33;37.00;;;17.10;;
75823;SDS011;64457;51.976;9.834;2023-02-11T13:21:21;33.33;;;16.77;;
75823;SDS011;64457;51.976;9.834;2023-02-11T13:24:01;33.07;;;16.77;;
75823;SDS011;64457;51.976;9.834;2023-02-11T13:26:50;38.27;;;16.73;;
75823;SDS011;64457;51.976;9.834;2023-02-11T13:29:29;35.07;;;17.23;;
75823;SDS011;64457;51.976;9.834;2023-02-11T13:32:12;37.50;;;16.97;;
75823;SDS011;64457;51.976;9.834;2023-02-11T13:34:54;38.50;;;17.30;;
75823;SDS011;64457;51.976;9.834;2023-02-11T13:37:25;38.83;;;17.73;;
75823;SDS011;64457;51.976;9.834;2023-02-11T13:39:58;38.80;;;17.33;;
75823;SDS011;64457;51.976;9.834;2023-02-11T13:42:29;40.20;;;17.60;;
75823;SDS011;64457;51.976;9.834;2023-02-11T13:44:59;41.17;;;18.67;;
75823;SDS011;64457;51.976;9.834;2023-02-11T13:47:30;37.00;;;16.87;;
75823;SDS011;64457;51.976;9.834;2023-02-11T13:50:00;39.97;;;18.50;;
75823;SDS011;64457;51.976;9.834;2023-02-11T13:52:33;38.47;;;18.30;;
75823;SDS011;64457;51.976;9.834;2023-02-11T13:55:06;32.90;;;17.20;;
75823;SDS011;64457;51.976;9.834;2023-02-11T13:57:52;42.50;;;18.73;;
75823;SDS011;64457;51.976;9.834;2023-02-11T14:00:48;38.93;;;19.50;;
75823;SDS011;64457;51.976;9.834;2023-02-11T14:03:22;38.50;;;17.50;;
75823;SDS011;64457;51.976;9.834;2023-02-11T14:06:23;40.23;;;18.47;;
75823;SDS011;64457;51.976;9.834;2023-02-11T14:09:33;38.90;;;17.57;;
75823;SDS011;64457;51.976;9.834;2023-02-11T14:12:24;36.80;;;17.00;;
75823;SDS011;64457;51.976;9.834;2023-02-11T14:15:16;42.37;;;17.30;;
75823;SDS011;64457;51.976;9.834;2023-02-11T14:17:52;35.60;;;17.13;;
75823;SDS011;64457;51.976;9.834;2023-02-11T14:20:39;34.73;;;16.40;;
75823;SDS011;64457;51.976;9.834;2023-02-11T14:23:19;43.70;;;18.97;;
75823;SDS011;64457;51.976;9.834;2023-02-11T14:26:12;38.03;;;16.90;;
75823;SDS011;64457;51.976;9.834;2023-02-11T14:29:07;34.33;;;16.63;;
75823;SDS011;64457;51.976;9.834;2023-02-11T14:31:42;35.43;;;16.00;;
75823;SDS011;64457;51.976;9.834;2023-02-11T14:34:25;37.17;;;16.37;;
75823;SDS011;64457;51.976;9.834;2023-02-11T14:40:05;33.40;;;16.10;;
75823;SDS011;64457;51.976;9.834;2023-02-11T14:42:44;32.50;;;15.50;;
75823;SDS011;64457;51.976;9.834;2023-02-11T14:45:14;36.10;;;16.37;;
75823;SDS011;64457;51.976;9.834;2023-02-11T14:47:48;38.07;;;16.83;;
75823;SDS011;64457;51.976;9.834;2023-02-11T14:50:21;35.80;;;16.07;;
75823;SDS011;64457;51.976;9.834;2023-02-11T14:52:55;37.93;;;16.23;;
75823;SDS011;64457;51.976;9.834;2023-02-11T14:55:27;33.90;;;15.70;;
75823;SDS011;64457;51.976;9.834;2023-02-11T14:58:05;36.80;;;16.40;;
75823;SDS011;64457;51.976;9.834;2023-02-11T15:00:46;37.17;;;15.80;;
75823;SDS011;64457;51.976;9.834;2023-02-11T15:03:23;35.00;;;15.73;;
75823;SDS011;64457;51.976;9.834;2023-02-11T15:06:02;34.00;;;16.27;;
75823;SDS011;64457;51.976;9.834;2023-02-11T15:08:41;33.10;;;16.37;;
75823;SDS011;64457;51.976;9.834;2023-02-11T15:11:14;36.20;;;16.57;;
75823;SDS011;64457;51.976;9.834;2023-02-11T15:13:46;32.57;;;15.70;;
75823;SDS011;64457;51.976;9.834;2023-02-11T15:16:16;47.13;;;17.00;;
75823;SDS011;64457;51.976;9.834;2023-02-11T15:18:47;34.33;;;16.60;;